Terminal Aerodrome Forecast
Issued by NWS Blacksburg, VA

Home | Current Version | Previous Version | Text Only | Print | Product List | Glossary On
Versions: 1 2 3 4 5 6 7 8 9 10 11 12 13 14 15 16
000
FTUS41 KRNK 310220 AAA
TAFROA
TAF AMD
KROA 310220Z 3102/3124 36005KT P6SM VCSH BKN090
     FM310500 08003KT P6SM SCT060
     FM311000 VRB03KT 5SM BR SCT250
     FM311400 05005KT P6SM SCT080
     FM311800 10007KT P6SM VCTS OVC050CB=

USA.gov is the U.S. government's official web portal to all federal, state and local government web resources and services.